sensor_id;sensor_type;location;lat;lon;timestamp;temperature;humidity
78289;DHT22;67539;48.752;12.922;2023-02-11T00:00:39;-3.90;99.90
78289;DHT22;67539;48.752;12.922;2023-02-11T00:03:08;-3.90;99.90
78289;DHT22;67539;48.752;12.922;2023-02-11T00:05:36;-3.90;99.90
78289;DHT22;67539;48.752;12.922;2023-02-11T00:08:04;-3.90;99.90
78289;DHT22;67539;48.752;12.922;2023-02-11T00:10:33;-3.90;99.90
78289;DHT22;67539;48.752;12.922;2023-02-11T00:13:01;-4.00;99.90
78289;DHT22;67539;48.752;12.922;2023-02-11T00:15:29;-4.00;99.90
78289;DHT22;67539;48.752;12.922;2023-02-11T00:17:57;-4.00;99.90
78289;DHT22;67539;48.752;12.922;2023-02-11T00:20:25;-4.10;99.90
78289;DHT22;67539;48.752;12.922;2023-02-11T00:22:53;-4.10;99.90
78289;DHT22;67539;48.752;12.922;2023-02-11T00:25:21;-4.10;99.90
78289;DHT22;67539;48.752;12.922;2023-02-11T00:27:51;-4.10;99.90
78289;DHT22;67539;48.752;12.922;2023-02-11T00:30:19;-4.10;99.90
78289;DHT22;67539;48.752;12.922;2023-02-11T00:32:47;-4.10;99.90
78289;DHT22;67539;48.752;12.922;2023-02-11T00:35:15;-4.10;99.90
78289;DHT22;67539;48.752;12.922;2023-02-11T00:37:43;-4.20;99.90
78289;DHT22;67539;48.752;12.922;2023-02-11T00:40:11;-4.20;99.90
78289;DHT22;67539;48.752;12.922;2023-02-11T00:42:41;-4.20;99.90
78289;DHT22;67539;48.752;12.922;2023-02-11T00:45:11;-4.20;99.90
78289;DHT22;67539;48.752;12.922;2023-02-11T00:47:39;-4.20;99.90
78289;DHT22;67539;48.752;12.922;2023-02-11T00:50:07;-4.20;99.90
78289;DHT22;67539;48.752;12.922;2023-02-11T00:52:35;-4.30;99.90
78289;DHT22;67539;48.752;12.922;2023-02-11T00:55:04;-4.30;99.90
78289;DHT22;67539;48.752;12.922;2023-02-11T00:57:32;-4.40;99.90
78289;DHT22;67539;48.752;12.922;2023-02-11T01:00:00;-4.40;99.90
78289;DHT22;67539;48.752;12.922;2023-02-11T01:02:29;-4.30;99.90
78289;DHT22;67539;48.752;12.922;2023-02-11T01:04:57;-4.40;99.90
78289;DHT22;67539;48.752;12.922;2023-02-11T01:07:27;-4.40;99.90
78289;DHT22;67539;48.752;12.922;2023-02-11T01:09:55;-4.40;99.90
78289;DHT22;67539;48.752;12.922;2023-02-11T01:12:23;-4.40;99.90
78289;DHT22;67539;48.752;12.922;2023-02-11T01:14:52;-4.40;99.90
78289;DHT22;67539;48.752;12.922;2023-02-11T01:17:19;-4.40;99.90
78289;DHT22;67539;48.752;12.922;2023-02-11T01:19:50;-4.40;99.90
78289;DHT22;67539;48.752;12.922;2023-02-11T01:22:18;-4.40;99.90
78289;DHT22;67539;48.752;12.922;2023-02-11T01:24:46;-4.40;99.90
78289;DHT22;67539;48.752;12.922;2023-02-11T01:27:14;-4.50;99.90
78289;DHT22;67539;48.752;12.922;2023-02-11T01:29:43;-4.40;99.90
78289;DHT22;67539;48.752;12.922;2023-02-11T01:32:12;-4.50;99.90
78289;DHT22;67539;48.752;12.922;2023-02-11T01:34:40;-4.50;99.90
78289;DHT22;67539;48.752;12.922;2023-02-11T01:37:09;-4.50;99.90
78289;DHT22;67539;48.752;12.922;2023-02-11T01:39:37;-4.50;99.90
78289;DHT22;67539;48.752;12.922;2023-02-11T01:42:05;-4.40;99.90
78289;DHT22;67539;48.752;12.922;2023-02-11T01:44:35;-4.50;99.90
78289;DHT22;67539;48.752;12.922;2023-02-11T01:47:04;-4.50;99.90
78289;DHT22;67539;48.752;12.922;2023-02-11T01:49:35;-4.50;99.90
78289;DHT22;67539;48.752;12.922;2023-02-11T01:52:06;-4.50;99.90
78289;DHT22;67539;48.752;12.922;2023-02-11T01:54:40;-4.50;99.90
78289;DHT22;67539;48.752;12.922;2023-02-11T01:57:31;-4.50;99.90
78289;DHT22;67539;48.752;12.922;2023-02-11T02:00:12;-4.50;99.90
78289;DHT22;67539;48.752;12.922;2023-02-11T02:02:48;-4.50;99.90
78289;DHT22;67539;48.752;12.922;2023-02-11T02:05:23;-4.50;99.90
78289;DHT22;67539;48.752;12.922;2023-02-11T02:07:58;-4.50;99.90
78289;DHT22;67539;48.752;12.922;2023-02-11T02:10:29;-4.50;99.90
78289;DHT22;67539;48.752;12.922;2023-02-11T02:12:57;-4.60;99.90
78289;DHT22;67539;48.752;12.922;2023-02-11T02:15:28;-4.60;99.90
78289;DHT22;67539;48.752;12.922;2023-02-11T02:18:04;-4.60;99.90
78289;DHT22;67539;48.752;12.922;2023-02-11T02:24:20;-4.70;99.90
78289;DHT22;67539;48.752;12.922;2023-02-11T02:27:07;-4.60;99.90
78289;DHT22;67539;48.752;12.922;2023-02-11T02:30:00;-4.60;99.90
78289;DHT22;67539;48.752;12.922;2023-02-11T02:32:49;-4.60;99.90
78289;DHT22;67539;48.752;12.922;2023-02-11T02:35:26;-4.60;99.90
78289;DHT22;67539;48.752;12.922;2023-02-11T02:37:58;-4.60;99.90
78289;DHT22;67539;48.752;12.922;2023-02-11T02:40:30;-4.60;99.90
78289;DHT22;67539;48.752;12.922;2023-02-11T02:43:00;-4.60;99.90
78289;DHT22;67539;48.752;12.922;2023-02-11T02:45:29;-4.60;99.90
78289;DHT22;67539;48.752;12.922;2023-02-11T02:47:59;-4.60;99.90
78289;DHT22;67539;48.752;12.922;2023-02-11T02:50:32;-4.60;99.90
78289;DHT22;67539;48.752;12.922;2023-02-11T02:53:15;-4.60;99.90
78289;DHT22;67539;48.752;12.922;2023-02-11T02:55:58;-4.60;99.90
78289;DHT22;67539;48.752;12.922;2023-02-11T02:58:53;-4.60;99.90
78289;DHT22;67539;48.752;12.922;2023-02-11T03:01:29;-4.60;99.90
78289;DHT22;67539;48.752;12.922;2023-02-11T03:04:07;-4.70;99.90
78289;DHT22;67539;48.752;12.922;2023-02-11T03:06:46;-4.70;99.90
78289;DHT22;67539;48.752;12.922;2023-02-11T03:09:18;-4.70;99.90
78289;DHT22;67539;48.752;12.922;2023-02-11T03:11:48;-4.70;99.90
78289;DHT22;67539;48.752;12.922;2023-02-11T03:14:17;-4.60;99.90
78289;DHT22;67539;48.752;12.922;2023-02-11T03:16:47;-4.70;99.90
78289;DHT22;67539;48.752;12.922;2023-02-11T03:19:20;-4.70;99.90
78289;DHT22;67539;48.752;12.922;2023-02-11T03:21:50;-4.70;99.90
78289;DHT22;67539;48.752;12.922;2023-02-11T03:24:23;-4.70;99.90
78289;DHT22;67539;48.752;12.922;2023-02-11T03:26:54;-4.70;99.90
78289;DHT22;67539;48.752;12.922;2023-02-11T03:29:30;-4.70;99.90
78289;DHT22;67539;48.752;12.922;2023-02-11T03:32:04;-4.80;99.90
78289;DHT22;67539;48.752;12.922;2023-02-11T03:34:41;-4.80;99.90
78289;DHT22;67539;48.752;12.922;2023-02-11T03:37:12;-4.80;99.90
78289;DHT22;67539;48.752;12.922;2023-02-11T03:39:46;-4.80;99.90
78289;DHT22;67539;48.752;12.922;2023-02-11T03:42:18;-4.80;99.90
78289;DHT22;67539;48.752;12.922;2023-02-11T03:44:50;-4.90;99.90
78289;DHT22;67539;48.752;12.922;2023-02-11T03:47:22;-4.80;99.90
78289;DHT22;67539;48.752;12.922;2023-02-11T03:49:54;-4.90;99.90
78289;DHT22;67539;48.752;12.922;2023-02-11T03:52:25;-4.90;99.90
78289;DHT22;67539;48.752;12.922;2023-02-11T03:54:56;-4.90;99.90
78289;DHT22;67539;48.752;12.922;2023-02-11T03:57:26;-4.90;99.90
78289;DHT22;67539;48.752;12.922;2023-02-11T03:59:56;-4.90;99.90
78289;DHT22;67539;48.752;12.922;2023-02-11T04:02:27;-4.90;99.90
78289;DHT22;67539;48.752;12.922;2023-02-11T04:04:57;-4.90;99.90
78289;DHT22;67539;48.752;12.922;2023-02-11T04:07:25;-4.80;99.90
78289;DHT22;67539;48.752;12.922;2023-02-11T04:09:54;-4.80;99.90
78289;DHT22;67539;48.752;12.922;2023-02-11T04:12:22;-4.80;99.90
78289;DHT22;67539;48.752;12.922;2023-02-11T04:14:50;-4.80;99.90
78289;DHT22;67539;48.752;12.922;2023-02-11T04:17:18;-4.80;99.90
78289;DHT22;67539;48.752;12.922;2023-02-11T04:19:46;-4.80;99.90
78289;DHT22;67539;48.752;12.922;2023-02-11T04:22:15;-4.80;99.90
78289;DHT22;67539;48.752;12.922;2023-02-11T04:24:43;-4.80;99.90
78289;DHT22;67539;48.752;12.922;2023-02-11T04:27:11;-4.80;99.90
78289;DHT22;67539;48.752;12.922;2023-02-11T04:29:39;-4.70;99.90
78289;DHT22;67539;48.752;12.922;2023-02-11T04:32:07;-4.70;99.90
78289;DHT22;67539;48.752;12.922;2023-02-11T04:34:35;-4.80;99.90
78289;DHT22;67539;48.752;12.922;2023-02-11T04:37:04;-4.80;99.90
78289;DHT22;67539;48.752;12.922;2023-02-11T04:39:33;-4.70;99.90
78289;DHT22;67539;48.752;12.922;2023-02-11T04:42:01;-4.70;99.90
78289;DHT22;67539;48.752;12.922;2023-02-11T04:44:29;-4.70;99.90
78289;DHT22;67539;48.752;12.922;2023-02-11T04:46:57;-4.70;99.90
78289;DHT22;67539;48.752;12.922;2023-02-11T04:49:25;-4.60;99.90
78289;DHT22;67539;48.752;12.922;2023-02-11T04:51:53;-4.60;99.90
78289;DHT22;67539;48.752;12.922;2023-02-11T04:54:21;-4.60;99.90
78289;DHT22;67539;48.752;12.922;2023-02-11T04:56:51;-4.50;99.90
78289;DHT22;67539;48.752;12.922;2023-02-11T04:59:19;-4.50;99.90
78289;DHT22;67539;48.752;12.922;2023-02-11T05:01:47;-4.50;99.90
78289;DHT22;67539;48.752;12.922;2023-02-11T05:04:15;-4.40;99.90
78289;DHT22;67539;48.752;12.922;2023-02-11T05:06:43;-4.40;99.90
78289;DHT22;67539;48.752;12.922;2023-02-11T05:09:12;-4.40;99.90
78289;DHT22;67539;48.752;12.922;2023-02-11T05:11:40;-4.40;99.90
78289;DHT22;67539;48.752;12.922;2023-02-11T05:14:09;-4.40;99.90
78289;DHT22;67539;48.752;12.922;2023-02-11T05:16:37;-4.40;99.90
78289;DHT22;67539;48.752;12.922;2023-02-11T05:19:05;-4.40;99.90
78289;DHT22;67539;48.752;12.922;2023-02-11T05:21:33;-4.40;99.90
78289;DHT22;67539;48.752;12.922;2023-02-11T05:24:01;-4.40;99.90
78289;DHT22;67539;48.752;12.922;2023-02-11T05:26:29;-4.30;99.90
78289;DHT22;67539;48.752;12.922;2023-02-11T05:28:57;-4.30;99.90
78289;DHT22;67539;48.752;12.922;2023-02-11T05:31:27;-4.30;99.90
78289;DHT22;67539;48.752;12.922;2023-02-11T05:33:55;-4.30;99.90
78289;DHT22;67539;48.752;12.922;2023-02-11T05:36:23;-4.30;99.90
78289;DHT22;67539;48.752;12.922;2023-02-11T05:38:51;-4.30;99.90
78289;DHT22;67539;48.752;12.922;2023-02-11T05:41:19;-4.30;99.90
78289;DHT22;67539;48.752;12.922;2023-02-11T05:43:47;-4.30;99.90
78289;DHT22;67539;48.752;12.922;2023-02-11T05:46:16;-4.30;99.90
78289;DHT22;67539;48.752;12.922;2023-02-11T05:48:45;-4.20;99.90
78289;DHT22;67539;48.752;12.922;2023-02-11T05:51:13;-4.20;99.90
78289;DHT22;67539;48.752;12.922;2023-02-11T05:53:41;-4.20;99.90
78289;DHT22;67539;48.752;12.922;2023-02-11T05:56:09;-4.20;99.90
78289;DHT22;67539;48.752;12.922;2023-02-11T05:58:38;-4.20;99.90
78289;DHT22;67539;48.752;12.922;2023-02-11T06:01:06;-4.20;99.90
78289;DHT22;67539;48.752;12.922;2023-02-11T06:03:34;-4.10;99.90
78289;DHT22;67539;48.752;12.922;2023-02-11T06:06:04;-4.10;99.90
78289;DHT22;67539;48.752;12.922;2023-02-11T06:08:32;-4.00;99.90
78289;DHT22;67539;48.752;12.922;2023-02-11T06:11:00;-4.00;99.90
78289;DHT22;67539;48.752;12.922;2023-02-11T06:13:28;-3.90;99.90
78289;DHT22;67539;48.752;12.922;2023-02-11T06:15:56;-3.90;99.90
78289;DHT22;67539;48.752;12.922;2023-02-11T06:18:24;-3.90;99.90
78289;DHT22;67539;48.752;12.922;2023-02-11T06:20:52;-3.90;99.90
78289;DHT22;67539;48.752;12.922;2023-02-11T06:23:22;-3.80;99.90
78289;DHT22;67539;48.752;12.922;2023-02-11T06:25:50;-3.80;99.90
78289;DHT22;67539;48.752;12.922;2023-02-11T06:28:19;-3.80;99.90
78289;DHT22;67539;48.752;12.922;2023-02-11T06:30:47;-3.80;99.90
78289;DHT22;67539;48.752;12.922;2023-02-11T06:33:15;-3.70;99.90
78289;DHT22;67539;48.752;12.922;2023-02-11T06:35:43;-3.70;99.90
78289;DHT22;67539;48.752;12.922;2023-02-11T06:38:10;-3.60;99.90
78289;DHT22;67539;48.752;12.922;2023-02-11T06:40:40;-3.50;99.90
78289;DHT22;67539;48.752;12.922;2023-02-11T06:43:13;-3.50;99.90
78289;DHT22;67539;48.752;12.922;2023-02-11T06:45:41;-3.40;99.90
78289;DHT22;67539;48.752;12.922;2023-02-11T06:48:09;-3.40;99.90
78289;DHT22;67539;48.752;12.922;2023-02-11T06:50:37;-3.30;99.90
78289;DHT22;67539;48.752;12.922;2023-02-11T06:53:05;-3.30;99.90
78289;DHT22;67539;48.752;12.922;2023-02-11T06:55:34;-3.30;99.90
78289;DHT22;67539;48.752;12.922;2023-02-11T06:58:03;-3.30;99.90
78289;DHT22;67539;48.752;12.922;2023-02-11T07:00:31;-3.20;99.90
78289;DHT22;67539;48.752;12.922;2023-02-11T07:02:59;-3.20;99.90
78289;DHT22;67539;48.752;12.922;2023-02-11T07:05:27;-3.10;99.90
78289;DHT22;67539;48.752;12.922;2023-02-11T07:07:56;-3.10;99.90
78289;DHT22;67539;48.752;12.922;2023-02-11T07:10:24;-3.10;99.90
78289;DHT22;67539;48.752;12.922;2023-02-11T07:12:51;-3.00;99.90
78289;DHT22;67539;48.752;12.922;2023-02-11T07:15:22;-2.90;99.90
78289;DHT22;67539;48.752;12.922;2023-02-11T07:17:50;-2.90;99.90
78289;DHT22;67539;48.752;12.922;2023-02-11T07:20:18;-2.80;99.90
78289;DHT22;67539;48.752;12.922;2023-02-11T07:22:46;-2.80;99.90
78289;DHT22;67539;48.752;12.922;2023-02-11T07:25:15;-2.70;99.90
78289;DHT22;67539;48.752;12.922;2023-02-11T07:27:43;-2.70;99.90
78289;DHT22;67539;48.752;12.922;2023-02-11T07:30:12;-2.60;99.90
78289;DHT22;67539;48.752;12.922;2023-02-11T07:32:41;-2.60;99.90
78289;DHT22;67539;48.752;12.922;2023-02-11T07:35:09;-2.50;99.90
78289;DHT22;67539;48.752;12.922;2023-02-11T07:37:37;-2.50;99.90
78289;DHT22;67539;48.752;12.922;2023-02-11T07:40:06;-2.40;99.90
78289;DHT22;67539;48.752;12.922;2023-02-11T07:42:34;-2.40;99.90
78289;DHT22;67539;48.752;12.922;2023-02-11T07:45:02;-2.30;99.90
78289;DHT22;67539;48.752;12.922;2023-02-11T07:47:30;-2.20;99.90
78289;DHT22;67539;48.752;12.922;2023-02-11T07:49:59;-2.10;99.90
78289;DHT22;67539;48.752;12.922;2023-02-11T07:52:28;-2.10;99.90
78289;DHT22;67539;48.752;12.922;2023-02-11T07:54:56;-2.00;99.90
78289;DHT22;67539;48.752;12.922;2023-02-11T07:57:24;-1.90;99.90
78289;DHT22;67539;48.752;12.922;2023-02-11T07:59:53;-1.80;99.90
78289;DHT22;67539;48.752;12.922;2023-02-11T08:02:20;-1.70;99.90
78289;DHT22;67539;48.752;12.922;2023-02-11T08:04:49;-1.60;99.90
78289;DHT22;67539;48.752;12.922;2023-02-11T08:07:18;-1.50;99.90
78289;DHT22;67539;48.752;12.922;2023-02-11T08:09:46;-1.50;99.90
78289;DHT22;67539;48.752;12.922;2023-02-11T08:12:14;-1.40;99.90
78289;DHT22;67539;48.752;12.922;2023-02-11T08:14:42;-1.30;99.90
78289;DHT22;67539;48.752;12.922;2023-02-11T08:17:10;-1.30;99.70
78289;DHT22;67539;48.752;12.922;2023-02-11T08:19:38;-1.20;99.70
78289;DHT22;67539;48.752;12.922;2023-02-11T08:22:06;-1.10;99.50
78289;DHT22;67539;48.752;12.922;2023-02-11T08:24:35;-1.10;99.30
78289;DHT22;67539;48.752;12.922;2023-02-11T08:27:03;-1.10;99.20
78289;DHT22;67539;48.752;12.922;2023-02-11T08:29:31;-1.00;99.30
78289;DHT22;67539;48.752;12.922;2023-02-11T08:31:59;-1.00;99.40
78289;DHT22;67539;48.752;12.922;2023-02-11T08:34:27;-0.90;99.50
78289;DHT22;67539;48.752;12.922;2023-02-11T08:36:55;-0.90;99.50
78289;DHT22;67539;48.752;12.922;2023-02-11T08:39:24;-0.80;99.20
78289;DHT22;67539;48.752;12.922;2023-02-11T08:41:53;-0.70;99.10
78289;DHT22;67539;48.752;12.922;2023-02-11T08:44:23;-0.70;99.00
78289;DHT22;67539;48.752;12.922;2023-02-11T08:46:51;-0.60;98.90
78289;DHT22;67539;48.752;12.922;2023-02-11T08:49:20;-0.60;98.90
78289;DHT22;67539;48.752;12.922;2023-02-11T08:51:48;-0.50;99.00
78289;DHT22;67539;48.752;12.922;2023-02-11T08:54:17;-0.50;98.90
78289;DHT22;67539;48.752;12.922;2023-02-11T08:56:45;-0.40;98.70
78289;DHT22;67539;48.752;12.922;2023-02-11T08:59:18;-0.40;98.70
78289;DHT22;67539;48.752;12.922;2023-02-11T09:01:47;-0.30;98.60
78289;DHT22;67539;48.752;12.922;2023-02-11T09:04:15;-0.20;98.50
78289;DHT22;67539;48.752;12.922;2023-02-11T09:06:43;-0.10;98.50
78289;DHT22;67539;48.752;12.922;2023-02-11T09:09:12;-0.10;98.40
78289;DHT22;67539;48.752;12.922;2023-02-11T09:11:42;0.10;98.10
78289;DHT22;67539;48.752;12.922;2023-02-11T09:14:15;0.20;98.00
78289;DHT22;67539;48.752;12.922;2023-02-11T09:16:46;0.30;97.60
78289;DHT22;67539;48.752;12.922;2023-02-11T09:19:14;0.40;97.00
78289;DHT22;67539;48.752;12.922;2023-02-11T09:21:43;0.50;97.00
78289;DHT22;67539;48.752;12.922;2023-02-11T09:24:11;0.60;96.70
78289;DHT22;67539;48.752;12.922;2023-02-11T09:26:41;0.70;96.40
78289;DHT22;67539;48.752;12.922;2023-02-11T09:29:09;0.70;96.00
78289;DHT22;67539;48.752;12.922;2023-02-11T09:31:37;0.80;95.80
78289;DHT22;67539;48.752;12.922;2023-02-11T09:34:07;0.90;95.60
78289;DHT22;67539;48.752;12.922;2023-02-11T09:36:36;1.00;95.30
78289;DHT22;67539;48.752;12.922;2023-02-11T09:39:07;1.10;95.20
78289;DHT22;67539;48.752;12.922;2023-02-11T09:44:38;1.20;94.90
78289;DHT22;67539;48.752;12.922;2023-02-11T09:47:20;1.30;94.60
78289;DHT22;67539;48.752;12.922;2023-02-11T09:49:54;1.40;94.80
78289;DHT22;67539;48.752;12.922;2023-02-11T09:52:31;1.40;94.80
78289;DHT22;67539;48.752;12.922;2023-02-11T09:55:05;1.50;94.70
78289;DHT22;67539;48.752;12.922;2023-02-11T09:57:39;1.60;94.80
78289;DHT22;67539;48.752;12.922;2023-02-11T10:00:19;1.60;94.20
78289;DHT22;67539;48.752;12.922;2023-02-11T10:02:58;1.70;93.70
78289;DHT22;67539;48.752;12.922;2023-02-11T10:05:40;1.70;94.10
78289;DHT22;67539;48.752;12.922;2023-02-11T10:08:15;1.80;93.60
78289;DHT22;67539;48.752;12.922;2023-02-11T10:10:50;1.90;93.30
78289;DHT22;67539;48.752;12.922;2023-02-11T10:13:31;2.00;93.40
78289;DHT22;67539;48.752;12.922;2023-02-11T10:16:08;2.10;93.50
78289;DHT22;67539;48.752;12.922;2023-02-11T10:18:53;2.20;92.90
78289;DHT22;67539;48.752;12.922;2023-02-11T10:21:31;2.20;92.70
78289;DHT22;67539;48.752;12.922;2023-02-11T10:24:02;2.30;93.20
78289;DHT22;67539;48.752;12.922;2023-02-11T10:26:32;2.40;92.90
78289;DHT22;67539;48.752;12.922;2023-02-11T10:29:04;2.60;92.20
78289;DHT22;67539;48.752;12.922;2023-02-11T10:31:41;2.80;92.00
78289;DHT22;67539;48.752;12.922;2023-02-11T10:34:11;2.90;91.20
78289;DHT22;67539;48.752;12.922;2023-02-11T10:36:42;3.00;91.00
78289;DHT22;67539;48.752;12.922;2023-02-11T10:39:14;3.10;91.00
78289;DHT22;67539;48.752;12.922;2023-02-11T10:41:44;3.10;91.30
78289;DHT22;67539;48.752;12.922;2023-02-11T10:44:22;3.10;91.00
78289;DHT22;67539;48.752;12.922;2023-02-11T10:46:52;3.00;90.50
78289;DHT22;67539;48.752;12.922;2023-02-11T10:49:36;3.10;90.90
78289;DHT22;67539;48.752;12.922;2023-02-11T10:52:20;3.00;90.90
78289;DHT22;67539;48.752;12.922;2023-02-11T10:54:56;3.00;90.40
78289;DHT22;67539;48.752;12.922;2023-02-11T10:57:27;3.00;91.00
78289;DHT22;67539;48.752;12.922;2023-02-11T10:59:58;3.00;91.10
78289;DHT22;67539;48.752;12.922;2023-02-11T11:02:29;3.00;90.50
78289;DHT22;67539;48.752;12.922;2023-02-11T11:05:02;3.00;91.30
78289;DHT22;67539;48.752;12.922;2023-02-11T11:07:34;3.00;86.10
78289;DHT22;67539;48.752;12.922;2023-02-11T11:10:05;3.00;88.20
78289;DHT22;67539;48.752;12.922;2023-02-11T11:12:36;3.00;88.30
78289;DHT22;67539;48.752;12.922;2023-02-11T11:15:17;3.00;89.80
78289;DHT22;67539;48.752;12.922;2023-02-11T11:17:45;3.00;90.10
78289;DHT22;67539;48.752;12.922;2023-02-11T11:20:23;3.00;90.10
78289;DHT22;67539;48.752;12.922;2023-02-11T11:23:09;3.00;90.60
78289;DHT22;67539;48.752;12.922;2023-02-11T11:25:40;3.10;90.20
78289;DHT22;67539;48.752;12.922;2023-02-11T11:28:19;3.10;90.60
78289;DHT22;67539;48.752;12.922;2023-02-11T11:30:48;3.20;90.60
78289;DHT22;67539;48.752;12.922;2023-02-11T11:33:20;3.20;90.80
78289;DHT22;67539;48.752;12.922;2023-02-11T11:35:57;3.30;90.30
78289;DHT22;67539;48.752;12.922;2023-02-11T11:38:28;3.40;89.80
78289;DHT22;67539;48.752;12.922;2023-02-11T11:41:22;3.50;89.00
78289;DHT22;67539;48.752;12.922;2023-02-11T11:43:59;3.50;89.70
78289;DHT22;67539;48.752;12.922;2023-02-11T11:46:31;3.50;86.30
78289;DHT22;67539;48.752;12.922;2023-02-11T11:49:11;3.30;85.80
78289;DHT22;67539;48.752;12.922;2023-02-11T11:51:42;3.30;85.50
78289;DHT22;67539;48.752;12.922;2023-02-11T11:54:15;3.30;87.50
78289;DHT22;67539;48.752;12.922;2023-02-11T11:56:51;3.40;86.20
78289;DHT22;67539;48.752;12.922;2023-02-11T11:59:20;3.40;84.60
78289;DHT22;67539;48.752;12.922;2023-02-11T12:02:09;3.30;85.40
78289;DHT22;67539;48.752;12.922;2023-02-11T12:04:54;3.30;85.60
78289;DHT22;67539;48.752;12.922;2023-02-11T12:07:35;3.20;86.30
78289;DHT22;67539;48.752;12.922;2023-02-11T12:10:25;3.20;85.30
78289;DHT22;67539;48.752;12.922;2023-02-11T12:13:00;3.30;86.20
78289;DHT22;67539;48.752;12.922;2023-02-11T12:15:34;3.40;85.90
78289;DHT22;67539;48.752;12.922;2023-02-11T12:18:21;3.50;84.90
78289;DHT22;67539;48.752;12.922;2023-02-11T12:21:08;3.60;82.80
78289;DHT22;67539;48.752;12.922;2023-02-11T12:23:52;3.60;83.00
78289;DHT22;67539;48.752;12.922;2023-02-11T12:26:23;3.70;81.60
78289;DHT22;67539;48.752;12.922;2023-02-11T12:29:04;3.50;80.30
78289;DHT22;67539;48.752;12.922;2023-02-11T12:31:54;3.50;80.50
78289;DHT22;67539;48.752;12.922;2023-02-11T12:34:37;3.40;81.10
78289;DHT22;67539;48.752;12.922;2023-02-11T12:37:17;3.40;79.70
78289;DHT22;67539;48.752;12.922;2023-02-11T12:39:50;3.50;80.20
78289;DHT22;67539;48.752;12.922;2023-02-11T12:42:50;3.50;80.50
78289;DHT22;67539;48.752;12.922;2023-02-11T12:45:55;3.40;79.10
78289;DHT22;67539;48.752;12.922;2023-02-11T12:51:46;3.20;80.00
78289;DHT22;67539;48.752;12.922;2023-02-11T12:54:24;3.10;81.10
78289;DHT22;67539;48.752;12.922;2023-02-11T12:56:58;3.20;82.00
78289;DHT22;67539;48.752;12.922;2023-02-11T12:59:39;3.20;80.70
78289;DHT22;67539;48.752;12.922;2023-02-11T13:02:17;3.30;80.40
78289;DHT22;67539;48.752;12.922;2023-02-11T13:04:52;3.30;80.50
78289;DHT22;67539;48.752;12.922;2023-02-11T13:07:24;3.40;81.50
78289;DHT22;67539;48.752;12.922;2023-02-11T13:09:57;3.40;81.60
78289;DHT22;67539;48.752;12.922;2023-02-11T13:12:28;3.40;80.30
78289;DHT22;67539;48.752;12.922;2023-02-11T13:15:18;3.40;80.30
78289;DHT22;67539;48.752;12.922;2023-02-11T13:17:53;3.40;80.60
78289;DHT22;67539;48.752;12.922;2023-02-11T13:20:35;3.40;81.10
78289;DHT22;67539;48.752;12.922;2023-02-11T13:23:15;3.30;81.50
78289;DHT22;67539;48.752;12.922;2023-02-11T13:25:48;3.30;80.70
78289;DHT22;67539;48.752;12.922;2023-02-11T13:28:28;3.30;81.80
78289;DHT22;67539;48.752;12.922;2023-02-11T13:31:03;3.30;81.00
78289;DHT22;67539;48.752;12.922;2023-02-11T13:33:34;3.30;81.40
78289;DHT22;67539;48.752;12.922;2023-02-11T13:36:15;3.30;80.60
78289;DHT22;67539;48.752;12.922;2023-02-11T13:38:53;3.40;80.50
78289;DHT22;67539;48.752;12.922;2023-02-11T13:41:25;3.50;80.00
78289;DHT22;67539;48.752;12.922;2023-02-11T13:44:04;3.40;80.40
78289;DHT22;67539;48.752;12.922;2023-02-11T13:46:53;3.40;80.90
78289;DHT22;67539;48.752;12.922;2023-02-11T13:49:26;3.40;80.00
78289;DHT22;67539;48.752;12.922;2023-02-11T13:51:56;3.40;80.20
78289;DHT22;67539;48.752;12.922;2023-02-11T13:54:29;3.30;80.40
78289;DHT22;67539;48.752;12.922;2023-02-11T13:57:31;3.20;80.80
78289;DHT22;67539;48.752;12.922;2023-02-11T14:00:03;3.20;81.10
78289;DHT22;67539;48.752;12.922;2023-02-11T14:02:35;3.10;81.50
78289;DHT22;67539;48.752;12.922;2023-02-11T14:05:28;3.10;81.70
78289;DHT22;67539;48.752;12.922;2023-02-11T14:08:20;3.20;82.50
78289;DHT22;67539;48.752;12.922;2023-02-11T14:11:41;3.20;82.70
78289;DHT22;67539;48.752;12.922;2023-02-11T14:14:21;3.30;82.80
78289;DHT22;67539;48.752;12.922;2023-02-11T14:17:26;3.40;82.50
78289;DHT22;67539;48.752;12.922;2023-02-11T14:19:59;3.40;83.30
78289;DHT22;67539;48.752;12.922;2023-02-11T14:22:30;3.40;83.20
78289;DHT22;67539;48.752;12.922;2023-02-11T14:25:17;3.50;82.80
78289;DHT22;67539;48.752;12.922;2023-02-11T14:27:50;3.40;83.80
78289;DHT22;67539;48.752;12.922;2023-02-11T14:30:30;3.30;84.00
78289;DHT22;67539;48.752;12.922;2023-02-11T14:33:19;3.40;84.10
78289;DHT22;67539;48.752;12.922;2023-02-11T14:35:59;3.40;83.20
78289;DHT22;67539;48.752;12.922;2023-02-11T14:38:38;3.30;84.10
78289;DHT22;67539;48.752;12.922;2023-02-11T14:41:13;3.30;84.10
78289;DHT22;67539;48.752;12.922;2023-02-11T14:43:45;3.30;84.90
78289;DHT22;67539;48.752;12.922;2023-02-11T14:46:14;3.30;84.40
78289;DHT22;67539;48.752;12.922;2023-02-11T14:48:45;3.30;84.90
78289;DHT22;67539;48.752;12.922;2023-02-11T14:51:18;3.30;85.70
78289;DHT22;67539;48.752;12.922;2023-02-11T14:53:48;3.30;86.00
78289;DHT22;67539;48.752;12.922;2023-02-11T14:56:18;3.40;86.70
78289;DHT22;67539;48.752;12.922;2023-02-11T14:58:48;3.40;86.30
78289;DHT22;67539;48.752;12.922;2023-02-11T15:01:29;3.40;86.30
78289;DHT22;67539;48.752;12.922;2023-02-11T15:03:59;3.50;86.70
78289;DHT22;67539;48.752;12.922;2023-02-11T15:06:31;3.50;86.50
78289;DHT22;67539;48.752;12.922;2023-02-11T15:09:03;3.50;85.50
78289;DHT22;67539;48.752;12.922;2023-02-11T15:11:33;3.60;85.50
78289;DHT22;67539;48.752;12.922;2023-02-11T15:14:08;3.60;85.50
78289;DHT22;67539;48.752;12.922;2023-02-11T15:16:40;3.60;85.60
78289;DHT22;67539;48.752;12.922;2023-02-11T15:19:18;3.60;85.40
78289;DHT22;67539;48.752;12.922;2023-02-11T15:21:49;3.60;86.40
78289;DHT22;67539;48.752;12.922;2023-02-11T15:24:24;3.60;86.40
78289;DHT22;67539;48.752;12.922;2023-02-11T15:26:59;3.60;86.50
78289;DHT22;67539;48.752;12.922;2023-02-11T15:29:34;3.60;86.30
78289;DHT22;67539;48.752;12.922;2023-02-11T15:32:12;3.70;85.80
78289;DHT22;67539;48.752;12.922;2023-02-11T15:34:42;3.70;86.50
78289;DHT22;67539;48.752;12.922;2023-02-11T15:37:15;3.70;85.70
78289;DHT22;67539;48.752;12.922;2023-02-11T15:39:44;3.70;86.10
78289;DHT22;67539;48.752;12.922;2023-02-11T15:42:20;3.70;86.10
78289;DHT22;67539;48.752;12.922;2023-02-11T15:44:49;3.70;86.60
78289;DHT22;67539;48.752;12.922;2023-02-11T15:47:35;3.70;86.80
78289;DHT22;67539;48.752;12.922;2023-02-11T15:50:03;3.70;86.30
78289;DHT22;67539;48.752;12.922;2023-02-11T15:52:33;3.70;86.20
78289;DHT22;67539;48.752;12.922;2023-02-11T15:55:01;3.70;86.00
78289;DHT22;67539;48.752;12.922;2023-02-11T15:57:29;3.70;86.10
78289;DHT22;67539;48.752;12.922;2023-02-11T15:59:57;3.70;85.90
78289;DHT22;67539;48.752;12.922;2023-02-11T16:02:37;3.70;85.40
78289;DHT22;67539;48.752;12.922;2023-02-11T16:05:25;3.70;85.20